Time;durP1;ratioP1;P1;durP2;ratioP2;P2;SDS_P1;SDS_P2;PMS_P1;PMS_P2;Temp;Humidity;BMP_temperature;BMP_pressure;BME280_temperature;BME280_humidity;BME280_pressure;Samples;Min_cycle;Max_cycle;Signal;HPM_P1;HPM_P2
2022/02/15 00:01:33;;;;;;;;;;;7.60;99.90;;;;;;4982480;28;19914;-72
2022/02/15 00:03:59;;;;;;;;;;;7.60;99.90;;;;;;4981612;28;20034;-72
2022/02/15 00:06:25;;;;;;;;;;;7.60;99.90;;;;;;4979323;28;20003;-72
2022/02/15 00:08:50;;;;;;;;;;;7.60;99.90;;;;;;4980688;28;20303;-71
2022/02/15 00:11:16;;;;;;;;;;;7.60;99.90;;;;;;4982776;28;19909;-72
2022/02/15 00:13:41;;;;;;;;;;;7.70;99.90;;;;;;4987538;28;19920;-72
2022/02/15 00:16:07;;;;;;;;;;;7.70;99.90;;;;;;4991300;28;19909;-72
2022/02/15 00:18:33;;;;;;;;;;;7.70;99.90;;;;;;4983304;28;19910;-72
2022/02/15 00:21:00;;;;;;;;;;;7.70;99.90;;;;;;4998756;28;19910;-72
2022/02/15 00:23:26;;;;;;;;;;;7.70;99.90;;;;;;4978352;28;19996;-71
2022/02/15 00:25:51;;;;;;;;;;;7.70;99.90;;;;;;4983540;28;20415;-72
2022/02/15 00:28:17;;;;;;;;;;;7.70;99.90;;;;;;4981735;28;20480;-72
2022/02/15 00:30:42;;;;;;;;;;;7.70;99.90;;;;;;4986701;28;19914;-72
2022/02/15 00:33:08;;;;;;;;;;;7.80;99.90;;;;;;4986148;28;20265;-72
2022/02/15 00:35:34;;;;;;;;;;;7.80;99.90;;;;;;4986913;28;21797;-73
2022/02/15 00:37:59;;;;;;;;;;;7.80;99.90;;;;;;4983393;28;20004;-72
2022/02/15 00:40:25;;;;;;;;;;;7.80;99.90;;;;;;4989551;28;19909;-72
2022/02/15 00:42:50;;;;;;;;;;;7.80;99.90;;;;;;4985717;28;20455;-73
2022/02/15 00:45:16;;;;;;;;;;;7.90;99.90;;;;;;4983577;28;20388;-72
2022/02/15 00:47:41;;;;;;;;;;;7.90;99.90;;;;;;4988116;28;19917;-72
2022/02/15 00:50:07;;;;;;;;;;;7.90;99.90;;;;;;4987377;28;19996;-73
2022/02/15 00:52:33;;;;;;;;;;;7.90;99.90;;;;;;4983375;28;19910;-73
2022/02/15 00:54:59;;;;;;;;;;;7.90;99.90;;;;;;4983579;28;19916;-73
2022/02/15 00:57:24;;;;;;;;;;;7.90;99.90;;;;;;4981116;28;19918;-73
2022/02/15 00:59:51;;;;;;;;;;;7.90;99.90;;;;;;4984436;28;21766;-72
2022/02/15 01:02:16;;;;;;;;;;;7.90;99.90;;;;;;4986695;28;19929;-72
2022/02/15 01:04:42;;;;;;;;;;;8.00;99.90;;;;;;4980246;28;20399;-72
2022/02/15 01:07:08;;;;;;;;;;;8.00;99.90;;;;;;4980691;28;19910;-72
2022/02/15 01:09:33;;;;;;;;;;;8.00;99.90;;;;;;4985967;28;19910;-72
2022/02/15 01:11:59;;;;;;;;;;;8.00;99.90;;;;;;4985581;28;20496;-72
2022/02/15 01:14:25;;;;;;;;;;;8.10;99.90;;;;;;4982903;28;20284;-72
2022/02/15 01:16:50;;;;;;;;;;;8.00;99.90;;;;;;4977518;28;19980;-73
2022/02/15 01:19:16;;;;;;;;;;;8.10;99.90;;;;;;4981213;28;20299;-73
2022/02/15 01:21:41;;;;;;;;;;;8.10;99.90;;;;;;4983697;28;19941;-73
2022/02/15 01:24:07;;;;;;;;;;;8.10;99.90;;;;;;4987960;28;19909;-73
2022/02/15 01:26:33;;;;;;;;;;;8.20;99.90;;;;;;4987050;28;20334;-72
2022/02/15 01:28:58;;;;;;;;;;;8.20;99.90;;;;;;4985131;28;19949;-73
2022/02/15 01:31:24;;;;;;;;;;;8.20;99.90;;;;;;4985286;28;20000;-73
2022/02/15 01:33:49;;;;;;;;;;;8.20;99.90;;;;;;4981627;28;19910;-72
2022/02/15 01:36:15;;;;;;;;;;;8.20;99.90;;;;;;4983387;28;20443;-72
2022/02/15 01:38:41;;;;;;;;;;;8.20;99.90;;;;;;4984007;28;19915;-73
2022/02/15 01:41:07;;;;;;;;;;;8.30;99.90;;;;;;4985405;28;20845;-72
2022/02/15 01:43:37;;;;;;;;;;;8.30;99.90;;;;;;4979510;28;19910;-73
2022/02/15 01:46:02;;;;;;;;;;;8.30;99.90;;;;;;4999949;28;19910;-73
2022/02/15 01:48:28;;;;;;;;;;;8.30;99.90;;;;;;4987246;28;20442;-73
2022/02/15 01:50:58;;;;;;;;;;;8.30;99.90;;;;;;4981805;28;19983;-73
2022/02/15 01:53:24;;;;;;;;;;;8.30;99.90;;;;;;4982989;28;20598;-73
2022/02/15 01:55:50;;;;;;;;;;;8.30;99.90;;;;;;4980866;28;19996;-73
2022/02/15 01:58:16;;;;;;;;;;;8.30;99.90;;;;;;4983412;28;20008;-73
2022/02/15 02:00:42;;;;;;;;;;;8.30;99.90;;;;;;4985269;28;20328;-74
2022/02/15 02:03:08;;;;;;;;;;;8.30;99.90;;;;;;4980372;28;19968;-73
2022/02/15 02:05:49;;;;;;;;;;;8.20;99.90;;;;;;4974713;28;19917;-72
2022/02/15 02:08:16;;;;;;;;;;;8.20;99.90;;;;;;4978139;28;19910;-72
2022/02/15 02:10:42;;;;;;;;;;;8.20;99.90;;;;;;4984612;28;19909;-73
2022/02/15 02:13:07;;;;;;;;;;;8.20;99.90;;;;;;4983855;28;20386;-73
2022/02/15 02:15:33;;;;;;;;;;;8.20;99.90;;;;;;4982151;28;20045;-72
2022/02/15 02:17:58;;;;;;;;;;;8.20;99.90;;;;;;4983652;28;19948;-73
2022/02/15 02:20:24;;;;;;;;;;;8.20;99.90;;;;;;4983375;28;20456;-72
2022/02/15 02:22:49;;;;;;;;;;;8.20;99.90;;;;;;4984176;28;19920;-72
2022/02/15 02:25:17;;;;;;;;;;;8.20;99.90;;;;;;4981479;28;19956;-72
2022/02/15 02:27:43;;;;;;;;;;;8.20;99.90;;;;;;4978376;28;19949;-73
2022/02/15 02:30:09;;;;;;;;;;;8.20;99.90;;;;;;4982218;28;19910;-72
2022/02/15 02:32:35;;;;;;;;;;;8.10;99.90;;;;;;4988768;28;19997;-72
2022/02/15 02:35:01;;;;;;;;;;;8.10;99.90;;;;;;4982984;28;20268;-73
2022/02/15 02:37:27;;;;;;;;;;;8.10;99.90;;;;;;4983194;28;19914;-72
2022/02/15 02:39:54;;;;;;;;;;;8.00;99.90;;;;;;4980567;28;20392;-73
2022/02/15 02:42:22;;;;;;;;;;;8.00;99.90;;;;;;4982643;28;19910;-73
2022/02/15 02:44:48;;;;;;;;;;;8.00;99.90;;;;;;4983755;28;19985;-73
2022/02/15 02:47:14;;;;;;;;;;;8.00;99.90;;;;;;4982023;28;20537;-73
2022/02/15 02:49:39;;;;;;;;;;;8.00;99.90;;;;;;4984878;28;19910;-72
2022/02/15 02:52:05;;;;;;;;;;;8.00;99.90;;;;;;4972702;28;19961;-72
2022/02/15 02:54:31;;;;;;;;;;;7.90;99.90;;;;;;4977609;28;19914;-72
2022/02/15 02:56:59;;;;;;;;;;;7.90;99.90;;;;;;4979678;28;19916;-73
2022/02/15 02:59:25;;;;;;;;;;;7.90;99.90;;;;;;4980025;28;19917;-72
2022/02/15 03:01:51;;;;;;;;;;;7.80;99.90;;;;;;4982654;28;19910;-73
2022/02/15 03:04:16;;;;;;;;;;;7.80;99.90;;;;;;4979296;28;19920;-73
2022/02/15 03:06:42;;;;;;;;;;;7.70;99.90;;;;;;4984381;28;20007;-73
2022/02/15 03:09:07;;;;;;;;;;;7.70;99.90;;;;;;4984055;28;19909;-72
2022/02/15 03:11:33;;;;;;;;;;;7.70;99.90;;;;;;4985699;28;20336;-73
2022/02/15 03:13:59;;;;;;;;;;;7.70;99.90;;;;;;4982269;28;19974;-73
2022/02/15 03:16:25;;;;;;;;;;;7.70;99.90;;;;;;4979101;28;19952;-73
2022/02/15 03:18:51;;;;;;;;;;;7.60;99.90;;;;;;4983406;28;19965;-73
2022/02/15 03:21:16;;;;;;;;;;;7.60;99.90;;;;;;4984909;28;20350;-73
2022/02/15 03:23:43;;;;;;;;;;;7.60;99.90;;;;;;4978777;28;19917;-73
2022/02/15 03:26:08;;;;;;;;;;;7.60;99.90;;;;;;4986577;28;19906;-72
2022/02/15 03:28:34;;;;;;;;;;;7.60;99.90;;;;;;4976925;28;19910;-73
2022/02/15 03:31:00;;;;;;;;;;;7.50;99.90;;;;;;4980194;28;19917;-73
2022/02/15 03:33:25;;;;;;;;;;;7.50;99.90;;;;;;4977954;28;20391;-73
2022/02/15 03:35:51;;;;;;;;;;;7.50;99.90;;;;;;4980797;28;20012;-73
2022/02/15 03:38:17;;;;;;;;;;;7.50;99.90;;;;;;4983392;28;19909;-73
2022/02/15 03:43:46;;;;;;;;;;;7.50;99.90;;;;;;4937068;29;19911;-72
2022/02/15 03:46:13;;;;;;;;;;;7.40;99.90;;;;;;4942989;29;20001;-73
2022/02/15 03:48:38;;;;;;;;;;;7.40;99.90;;;;;;4961665;28;19918;-72
2022/02/15 03:51:04;;;;;;;;;;;7.40;99.90;;;;;;4981963;28;20399;-73
2022/02/15 03:53:29;;;;;;;;;;;7.40;99.90;;;;;;4961599;28;19917;-72
2022/02/15 03:55:55;;;;;;;;;;;7.50;99.90;;;;;;4978323;28;19914;-73
2022/02/15 03:58:20;;;;;;;;;;;7.40;99.90;;;;;;4978471;28;20434;-72
2022/02/15 04:00:46;;;;;;;;;;;7.40;99.90;;;;;;4983687;28;19913;-73
2022/02/15 04:03:12;;;;;;;;;;;7.40;99.90;;;;;;4985255;28;19906;-72
2022/02/15 04:05:37;;;;;;;;;;;7.40;99.90;;;;;;4984234;28;19914;-72
2022/02/15 04:08:03;;;;;;;;;;;7.40;99.90;;;;;;4985372;28;19949;-73
2022/02/15 04:10:29;;;;;;;;;;;7.40;99.90;;;;;;4982941;28;19917;-73
2022/02/15 04:12:54;;;;;;;;;;;7.40;99.90;;;;;;4982316;28;20375;-72
2022/02/15 04:15:20;;;;;;;;;;;7.40;99.90;;;;;;4987115;28;19910;-72
2022/02/15 04:17:46;;;;;;;;;;;7.40;99.90;;;;;;4983615;28;19914;-72
2022/02/15 04:20:12;;;;;;;;;;;7.40;99.90;;;;;;4984410;28;20406;-73
2022/02/15 04:22:38;;;;;;;;;;;7.40;99.90;;;;;;4983216;28;19917;-73
2022/02/15 04:25:04;;;;;;;;;;;7.40;99.90;;;;;;4983072;28;19910;-72
2022/02/15 04:27:30;;;;;;;;;;;7.30;99.90;;;;;;4985286;28;19928;-73
2022/02/15 04:29:56;;;;;;;;;;;7.30;99.90;;;;;;4981996;28;20368;-73
2022/02/15 04:32:22;;;;;;;;;;;7.30;99.90;;;;;;4979589;28;19906;-72
2022/02/15 04:34:47;;;;;;;;;;;7.30;99.90;;;;;;4977389;28;19925;-73
2022/02/15 04:37:14;;;;;;;;;;;7.30;99.90;;;;;;4980023;28;19921;-73
2022/02/15 04:39:39;;;;;;;;;;;7.30;99.90;;;;;;4983765;28;19906;-72
2022/02/15 04:42:05;;;;;;;;;;;7.30;99.90;;;;;;4983147;28;20026;-72
2022/02/15 04:44:31;;;;;;;;;;;7.20;99.90;;;;;;4986237;28;19913;-74
2022/02/15 04:46:56;;;;;;;;;;;7.20;99.90;;;;;;4987768;28;19936;-72
2022/02/15 04:49:22;;;;;;;;;;;7.20;99.90;;;;;;4985976;28;19917;-72
2022/02/15 04:51:48;;;;;;;;;;;7.20;99.90;;;;;;4981214;28;19913;-72
2022/02/15 04:54:14;;;;;;;;;;;7.20;99.90;;;;;;4982655;28;19973;-71
2022/02/15 04:56:40;;;;;;;;;;;7.10;99.90;;;;;;4976117;28;19921;-72
2022/02/15 04:59:05;;;;;;;;;;;7.10;99.90;;;;;;4982977;28;19905;-73
2022/02/15 05:01:31;;;;;;;;;;;7.10;99.90;;;;;;4983016;28;20299;-72
2022/02/15 05:03:57;;;;;;;;;;;7.10;99.90;;;;;;4982826;28;19957;-72
2022/02/15 05:06:22;;;;;;;;;;;7.20;99.90;;;;;;4986814;28;19961;-73
2022/02/15 05:08:48;;;;;;;;;;;7.20;99.90;;;;;;4984841;28;19953;-72
2022/02/15 05:11:14;;;;;;;;;;;7.20;99.90;;;;;;4979678;28;19914;-71
2022/02/15 05:13:39;;;;;;;;;;;7.20;99.90;;;;;;4987038;28;20344;-71
2022/02/15 05:16:05;;;;;;;;;;;7.20;99.90;;;;;;4985747;28;19920;-73
2022/02/15 05:18:30;;;;;;;;;;;7.20;99.90;;;;;;4986823;28;19948;-72
2022/02/15 05:21:01;;;;;;;;;;;7.20;99.90;;;;;;4982202;28;19914;-73
2022/02/15 05:23:30;;;;;;;;;;;7.10;99.90;;;;;;4983245;28;19906;-72
2022/02/15 05:25:56;;;;;;;;;;;7.10;99.90;;;;;;4984549;28;19914;-72
2022/02/15 05:28:22;;;;;;;;;;;7.10;99.90;;;;;;4983732;28;19910;-72
2022/02/15 05:30:48;;;;;;;;;;;7.10;99.90;;;;;;4983296;28;19925;-73
2022/02/15 05:33:13;;;;;;;;;;;7.20;99.90;;;;;;4984704;28;19913;-72
2022/02/15 05:35:39;;;;;;;;;;;7.10;99.90;;;;;;4987156;28;20004;-72
2022/02/15 05:38:05;;;;;;;;;;;7.10;99.90;;;;;;4979587;28;19957;-73
2022/02/15 05:40:30;;;;;;;;;;;7.10;99.90;;;;;;4987200;28;19920;-73
2022/02/15 05:42:56;;;;;;;;;;;7.10;99.90;;;;;;4981982;28;19915;-73
2022/02/15 05:45:21;;;;;;;;;;;7.10;99.90;;;;;;4981622;28;19910;-73
2022/02/15 05:47:47;;;;;;;;;;;7.10;99.90;;;;;;4978370;28;20001;-73
2022/02/15 05:52:57;;;;;;;;;;;7.10;99.90;;;;;;4980476;28;20344;-72
2022/02/15 05:55:22;;;;;;;;;;;7.10;99.90;;;;;;4987995;28;19956;-72
2022/02/15 05:57:48;;;;;;;;;;;7.10;99.90;;;;;;4979404;28;20287;-73
2022/02/15 06:00:17;;;;;;;;;;;7.00;99.90;;;;;;4980513;28;20356;-73
2022/02/15 06:02:43;;;;;;;;;;;7.00;99.90;;;;;;4980152;28;20280;-73
2022/02/15 06:05:09;;;;;;;;;;;7.00;99.90;;;;;;4984202;28;19910;-73
2022/02/15 06:07:35;;;;;;;;;;;7.00;99.90;;;;;;4980523;28;19917;-73
2022/02/15 06:10:01;;;;;;;;;;;7.00;99.90;;;;;;4978770;28;20400;-73
2022/02/15 06:12:26;;;;;;;;;;;7.00;99.90;;;;;;4982680;28;19953;-73
2022/02/15 06:14:52;;;;;;;;;;;7.00;99.90;;;;;;4982957;28;19964;-72
2022/02/15 06:17:20;;;;;;;;;;;6.90;99.90;;;;;;4980484;28;20276;-73
2022/02/15 06:19:45;;;;;;;;;;;6.90;99.90;;;;;;4984418;28;19918;-73
2022/02/15 06:22:11;;;;;;;;;;;6.80;99.90;;;;;;4976682;28;20245;-73
2022/02/15 06:24:37;;;;;;;;;;;6.80;99.90;;;;;;4982067;28;19918;-73
2022/02/15 06:27:03;;;;;;;;;;;6.80;99.90;;;;;;4978428;28;19910;-73
2022/02/15 06:29:32;;;;;;;;;;;6.80;99.90;;;;;;4983727;28;20336;-74
2022/02/15 06:31:58;;;;;;;;;;;6.70;99.90;;;;;;4980038;28;19993;-74
2022/02/15 06:34:25;;;;;;;;;;;6.70;99.90;;;;;;4980966;28;20434;-73
2022/02/15 06:36:51;;;;;;;;;;;6.70;99.90;;;;;;4978384;28;19920;-72
2022/02/15 06:39:17;;;;;;;;;;;6.70;99.90;;;;;;4980439;28;19910;-73
2022/02/15 06:41:43;;;;;;;;;;;6.80;99.90;;;;;;4977331;28;19929;-73
2022/02/15 06:44:08;;;;;;;;;;;6.70;99.90;;;;;;4995694;28;20292;-72
2022/02/15 06:46:34;;;;;;;;;;;6.70;99.90;;;;;;4980518;28;20442;-73
2022/02/15 06:48:59;;;;;;;;;;;6.80;99.90;;;;;;4977402;28;20273;-73
2022/02/15 06:51:25;;;;;;;;;;;6.90;99.90;;;;;;4980572;28;19910;-74
2022/02/15 06:53:51;;;;;;;;;;;6.90;99.90;;;;;;4979203;28;20008;-73
2022/02/15 06:56:16;;;;;;;;;;;6.90;99.90;;;;;;4980984;28;19921;-72
2022/02/15 06:58:42;;;;;;;;;;;6.90;99.90;;;;;;4975312;28;20122;-73
2022/02/15 07:01:09;;;;;;;;;;;6.90;99.90;;;;;;4979492;28;19941;-74
2022/02/15 07:03:34;;;;;;;;;;;6.90;99.90;;;;;;4981105;28;19944;-70
2022/02/15 07:06:00;;;;;;;;;;;6.90;99.90;;;;;;4977680;28;19961;-73
2022/02/15 07:08:26;;;;;;;;;;;6.90;99.90;;;;;;4980191;28;19925;-73
2022/02/15 07:10:54;;;;;;;;;;;6.90;99.90;;;;;;4977373;28;20418;-73
2022/02/15 07:13:21;;;;;;;;;;;6.90;99.90;;;;;;4977687;28;19918;-75
2022/02/15 07:15:46;;;;;;;;;;;6.80;99.90;;;;;;4960317;28;20472;-73
2022/02/15 07:18:12;;;;;;;;;;;6.90;99.90;;;;;;4985680;28;20023;-76
2022/02/15 07:20:37;;;;;;;;;;;6.90;99.90;;;;;;4985030;28;20314;-76
2022/02/15 07:23:06;;;;;;;;;;;6.90;99.90;;;;;;4996146;28;20287;-76
2022/02/15 07:25:32;;;;;;;;;;;7.00;99.90;;;;;;4976335;28;19925;-73
2022/02/15 07:28:01;;;;;;;;;;;7.00;99.90;;;;;;4977561;28;19914;-72
2022/02/15 07:30:27;;;;;;;;;;;7.00;99.90;;;;;;4979809;28;20520;-73
2022/02/15 07:32:52;;;;;;;;;;;7.00;99.90;;;;;;4980923;28;19913;-72
2022/02/15 07:35:18;;;;;;;;;;;6.90;99.90;;;;;;4980028;28;19909;-72
2022/02/15 07:37:49;;;;;;;;;;;7.00;99.90;;;;;;4976631;28;19913;-72
2022/02/15 07:40:21;;;;;;;;;;;6.90;99.90;;;;;;4975990;28;20451;-72
2022/02/15 07:42:47;;;;;;;;;;;7.00;99.90;;;;;;4978922;28;20012;-72
2022/02/15 07:45:17;;;;;;;;;;;7.00;99.90;;;;;;4982115;28;19909;-73
2022/02/15 07:47:50;;;;;;;;;;;7.10;99.90;;;;;;4980783;28;19918;-70
2022/02/15 07:50:17;;;;;;;;;;;7.10;99.90;;;;;;4978931;28;20314;-72
2022/02/15 07:52:44;;;;;;;;;;;7.10;99.90;;;;;;4980784;28;19910;-73
2022/02/15 07:55:10;;;;;;;;;;;7.00;99.90;;;;;;4982984;28;19985;-72
2022/02/15 07:57:36;;;;;;;;;;;7.00;99.90;;;;;;4978046;28;20448;-73
2022/02/15 08:00:02;;;;;;;;;;;7.00;99.90;;;;;;4982015;28;20288;-70
2022/02/15 08:02:27;;;;;;;;;;;7.00;99.90;;;;;;4978840;28;20004;-71
2022/02/15 08:04:53;;;;;;;;;;;7.00;99.90;;;;;;4977652;28;19928;-72
2022/02/15 08:07:18;;;;;;;;;;;7.00;99.90;;;;;;4975934;28;19914;-71
2022/02/15 08:09:44;;;;;;;;;;;7.00;99.90;;;;;;4978416;28;19914;-71
2022/02/15 08:12:17;;;;;;;;;;;7.00;99.90;;;;;;4983480;28;20012;-72
2022/02/15 08:14:46;;;;;;;;;;;7.00;99.90;;;;;;4981907;28;19981;-72
2022/02/15 08:17:12;;;;;;;;;;;7.00;99.90;;;;;;4984874;28;19955;-71
2022/02/15 08:19:37;;;;;;;;;;;7.00;99.90;;;;;;4981557;28;20021;-72
2022/02/15 08:22:03;;;;;;;;;;;7.00;99.90;;;;;;4978547;28;21520;-72
2022/02/15 08:24:29;;;;;;;;;;;7.00;99.90;;;;;;4979701;28;19949;-72
2022/02/15 08:26:55;;;;;;;;;;;7.00;99.90;;;;;;4980604;28;20670;-72
2022/02/15 08:29:21;;;;;;;;;;;7.00;99.90;;;;;;4980514;28;19972;-72
2022/02/15 08:31:47;;;;;;;;;;;7.00;99.90;;;;;;4978301;28;19913;-72
2022/02/15 08:34:12;;;;;;;;;;;7.00;99.90;;;;;;4977125;28;19996;-71
2022/02/15 08:36:38;;;;;;;;;;;7.00;99.90;;;;;;4981297;28;19920;-70
2022/02/15 08:39:04;;;;;;;;;;;7.10;99.90;;;;;;4982321;28;20419;-71
2022/02/15 08:41:29;;;;;;;;;;;7.00;99.90;;;;;;4979748;28;19910;-71
2022/02/15 08:43:56;;;;;;;;;;;7.10;99.90;;;;;;4980940;28;19918;-72
2022/02/15 08:46:21;;;;;;;;;;;7.10;99.90;;;;;;4978533;28;19928;-71
2022/02/15 08:48:47;;;;;;;;;;;7.10;99.90;;;;;;4980806;28;19926;-72
2022/02/15 08:51:14;;;;;;;;;;;7.00;99.90;;;;;;4979647;28;19910;-71
2022/02/15 08:53:40;;;;;;;;;;;7.00;99.90;;;;;;4982754;28;20268;-72
2022/02/15 08:56:06;;;;;;;;;;;7.10;99.90;;;;;;4980818;28;19914;-72
2022/02/15 08:58:32;;;;;;;;;;;7.20;99.90;;;;;;4981261;28;19917;-72
2022/02/15 09:01:00;;;;;;;;;;;7.20;99.90;;;;;;4979754;28;19992;-72
2022/02/15 09:03:26;;;;;;;;;;;7.30;99.90;;;;;;4980618;28;19917;-73
2022/02/15 09:05:52;;;;;;;;;;;7.30;99.90;;;;;;4981085;28;19914;-72
2022/02/15 09:08:17;;;;;;;;;;;7.40;99.90;;;;;;4980719;28;19920;-71
2022/02/15 09:10:43;;;;;;;;;;;7.40;99.90;;;;;;4981196;28;19910;-72
2022/02/15 09:13:08;;;;;;;;;;;7.40;99.90;;;;;;4978050;28;20302;-71
2022/02/15 09:15:34;;;;;;;;;;;7.40;99.90;;;;;;4980831;28;19920;-71
2022/02/15 09:18:00;;;;;;;;;;;7.40;99.90;;;;;;4976281;28;20391;-72
2022/02/15 09:20:25;;;;;;;;;;;7.40;99.90;;;;;;4980553;28;19910;-72
2022/02/15 09:22:51;;;;;;;;;;;7.30;99.90;;;;;;4975342;28;20358;-72
2022/02/15 09:25:16;;;;;;;;;;;7.30;99.90;;;;;;4980852;28;19910;-71
2022/02/15 09:27:42;;;;;;;;;;;7.30;99.90;;;;;;4981295;28;19921;-71
2022/02/15 09:30:08;;;;;;;;;;;7.30;99.90;;;;;;4980813;28;20361;-72
2022/02/15 09:32:34;;;;;;;;;;;7.40;99.90;;;;;;4960185;28;19917;-71
2022/02/15 09:34:59;;;;;;;;;;;7.50;99.90;;;;;;4977234;28;20044;-71
2022/02/15 09:37:25;;;;;;;;;;;7.50;99.90;;;;;;4976833;28;19921;-71
2022/02/15 09:39:52;;;;;;;;;;;7.60;99.90;;;;;;4976594;28;20005;-71
2022/02/15 09:42:18;;;;;;;;;;;7.70;99.90;;;;;;4980390;28;19956;-71
2022/02/15 09:44:45;;;;;;;;;;;7.70;99.90;;;;;;4974391;28;19916;-71
2022/02/15 09:47:13;;;;;;;;;;;7.70;99.90;;;;;;4976842;28;19921;-71
2022/02/15 09:49:50;;;;;;;;;;;7.60;99.90;;;;;;4979035;28;19913;-71
2022/02/15 09:52:20;;;;;;;;;;;7.70;99.90;;;;;;4956771;28;19918;-71
2022/02/15 09:54:46;;;;;;;;;;;7.70;99.90;;;;;;4979329;28;19914;-71
2022/02/15 09:57:15;;;;;;;;;;;7.70;99.90;;;;;;4974715;28;19980;-70
2022/02/15 09:59:41;;;;;;;;;;;7.70;99.90;;;;;;4978387;28;19969;-71
2022/02/15 10:02:09;;;;;;;;;;;7.70;99.90;;;;;;4971532;28;20395;-71
2022/02/15 10:04:35;;;;;;;;;;;7.80;99.90;;;;;;4976744;28;19918;-70
2022/02/15 10:07:02;;;;;;;;;;;7.90;99.90;;;;;;4976475;28;19980;-71
2022/02/15 10:09:28;;;;;;;;;;;7.90;99.90;;;;;;4974944;28;20238;-72
2022/02/15 10:12:02;;;;;;;;;;;8.00;99.90;;;;;;4980615;28;19996;-72
2022/02/15 10:14:28;;;;;;;;;;;8.10;99.90;;;;;;4994295;28;20109;-72
2022/02/15 10:16:53;;;;;;;;;;;8.20;99.90;;;;;;4979224;28;20184;-72
2022/02/15 10:19:22;;;;;;;;;;;8.20;99.90;;;;;;4976160;28;20038;-72
2022/02/15 10:21:51;;;;;;;;;;;8.20;99.90;;;;;;4977805;28;19913;-71
2022/02/15 10:24:17;;;;;;;;;;;8.30;99.90;;;;;;4977294;28;19910;-72
2022/02/15 10:26:55;;;;;;;;;;;8.30;99.90;;;;;;4979676;28;19920;-72
2022/02/15 10:29:21;;;;;;;;;;;8.30;99.90;;;;;;4978763;28;19910;-72
2022/02/15 10:31:47;;;;;;;;;;;8.30;99.90;;;;;;4978600;28;20419;-72
2022/02/15 10:34:12;;;;;;;;;;;8.40;99.90;;;;;;4979260;28;19914;-72
2022/02/15 10:36:38;;;;;;;;;;;8.40;99.90;;;;;;4977732;28;20284;-72
2022/02/15 10:39:03;;;;;;;;;;;8.50;99.90;;;;;;4980598;28;20371;-72
2022/02/15 10:41:33;;;;;;;;;;;8.60;99.90;;;;;;4958107;28;20360;-72
2022/02/15 10:43:59;;;;;;;;;;;8.70;99.90;;;;;;4975388;28;19913;-72
2022/02/15 10:46:26;;;;;;;;;;;8.80;99.90;;;;;;4977963;28;19916;-72
2022/02/15 10:48:53;;;;;;;;;;;9.00;99.90;;;;;;4978897;28;19940;-72
2022/02/15 10:51:19;;;;;;;;;;;9.00;99.90;;;;;;4975765;28;19910;-72
2022/02/15 10:53:45;;;;;;;;;;;8.90;99.90;;;;;;4976774;28;19921;-72
2022/02/15 10:56:11;;;;;;;;;;;8.90;99.90;;;;;;4977755;28;20466;-72
2022/02/15 10:58:37;;;;;;;;;;;8.80;99.90;;;;;;4976823;28;19918;-71
2022/02/15 11:01:07;;;;;;;;;;;8.70;99.90;;;;;;4976890;28;19914;-72
2022/02/15 11:03:34;;;;;;;;;;;8.70;99.90;;;;;;4975746;28;19921;-72
2022/02/15 11:06:00;;;;;;;;;;;8.60;99.90;;;;;;4974877;28;20001;-71
2022/02/15 11:08:26;;;;;;;;;;;8.60;99.90;;;;;;4981560;28;19918;-72
2022/02/15 11:10:51;;;;;;;;;;;8.50;99.90;;;;;;4982865;28;19914;-71
2022/02/15 11:13:17;;;;;;;;;;;8.50;99.90;;;;;;4980891;28;19924;-71
2022/02/15 11:15:50;;;;;;;;;;;8.50;99.90;;;;;;4981115;28;19910;-71
2022/02/15 11:18:26;;;;;;;;;;;8.60;99.90;;;;;;4979429;28;19917;-72
2022/02/15 11:20:52;;;;;;;;;;;8.50;99.90;;;;;;4979745;28;19914;-71
2022/02/15 11:23:19;;;;;;;;;;;8.50;99.90;;;;;;4980715;28;19957;-72
2022/02/15 11:25:45;;;;;;;;;;;8.60;99.90;;;;;;4978597;28;19940;-72
2022/02/15 11:28:12;;;;;;;;;;;8.50;99.90;;;;;;4978919;28;20442;-72
2022/02/15 11:30:52;;;;;;;;;;;8.80;99.90;;;;;;4980595;28;19913;-74
2022/02/15 11:33:24;;;;;;;;;;;10.10;99.90;;;;;;4978594;28;19914;-72
2022/02/15 11:35:51;;;;;;;;;;;11.30;99.90;;;;;;4980899;28;19964;-72
2022/02/15 11:38:16;;;;;;;;;;;11.90;98.70;;;;;;4979718;28;19937;-73
2022/02/15 11:40:42;;;;;;;;;;;11.80;97.00;;;;;;4980221;28;19968;-71
2022/02/15 11:43:10;;;;;;;;;;;11.30;98.80;;;;;;4980753;28;20386;-71
2022/02/15 11:45:41;;;;;;;;;;;10.80;99.90;;;;;;4979944;28;19917;-69
2022/02/15 11:48:07;;;;;;;;;;;10.40;99.90;;;;;;4981206;28;19914;-71
2022/02/15 11:50:47;;;;;;;;;;;10.00;99.90;;;;;;4977208;28;21640;-71
2022/02/15 11:53:13;;;;;;;;;;;9.80;99.90;;;;;;4980244;28;20824;-72
2022/02/15 11:55:39;;;;;;;;;;;9.70;99.90;;;;;;4981208;28;19964;-71
2022/02/15 11:58:10;;;;;;;;;;;9.70;99.90;;;;;;4979812;28;19917;-72
2022/02/15 12:00:38;;;;;;;;;;;9.50;99.90;;;;;;4981397;28;19914;-74
2022/02/15 12:03:04;;;;;;;;;;;9.40;99.90;;;;;;4982616;28;19910;-72
2022/02/15 12:05:31;;;;;;;;;;;9.30;99.90;;;;;;4979817;28;19922;-73
2022/02/15 12:07:57;;;;;;;;;;;9.20;99.90;;;;;;4980734;28;19918;-73
2022/02/15 12:10:24;;;;;;;;;;;9.20;99.90;;;;;;4979070;28;19957;-73
2022/02/15 12:12:52;;;;;;;;;;;9.10;99.90;;;;;;5013491;23;19971;-76
2022/02/15 12:15:17;;;;;;;;;;;9.10;99.90;;;;;;5000570;28;20389;-76
2022/02/15 12:17:43;;;;;;;;;;;9.10;99.90;;;;;;4977551;28;20063;-75
2022/02/15 12:20:20;;;;;;;;;;;9.00;99.90;;;;;;4998474;28;20034;-77
2022/02/15 12:22:48;;;;;;;;;;;8.90;99.90;;;;;;5002773;28;19910;-77
2022/02/15 12:25:13;;;;;;;;;;;8.80;99.90;;;;;;4988283;28;20009;-77
2022/02/15 12:27:44;;;;;;;;;;;8.80;99.90;;;;;;4990821;28;20008;-75
2022/02/15 12:30:13;;;;;;;;;;;8.80;99.90;;;;;;5004479;28;19917;-76
2022/02/15 12:32:46;;;;;;;;;;;8.80;99.90;;;;;;5004371;28;19916;-74
2022/02/15 12:35:12;;;;;;;;;;;8.80;99.90;;;;;;4980678;28;19909;-76
2022/02/15 12:37:38;;;;;;;;;;;8.80;99.90;;;;;;4983016;28;19921;-75
2022/02/15 12:40:05;;;;;;;;;;;9.00;99.90;;;;;;5004477;28;20339;-75
2022/02/15 12:42:30;;;;;;;;;;;9.10;99.90;;;;;;5003505;28;19933;-76
2022/02/15 12:45:05;;;;;;;;;;;9.00;99.90;;;;;;4986022;28;20458;-76
2022/02/15 12:47:32;;;;;;;;;;;9.00;99.90;;;;;;4988235;28;19909;-74
2022/02/15 12:49:58;;;;;;;;;;;9.10;99.90;;;;;;4986978;28;19909;-75
2022/02/15 12:52:26;;;;;;;;;;;9.00;99.90;;;;;;4981665;28;20342;-76
2022/02/15 12:54:53;;;;;;;;;;;9.00;99.90;;;;;;5002831;28;19916;-75
2022/02/15 12:57:20;;;;;;;;;;;9.00;99.90;;;;;;4987935;28;20354;-76
2022/02/15 12:59:46;;;;;;;;;;;9.00;99.90;;;;;;5004512;28;19910;-77
2022/02/15 13:02:16;;;;;;;;;;;9.10;99.90;;;;;;4981799;28;19914;-76
2022/02/15 13:04:47;;;;;;;;;;;9.00;99.90;;;;;;5009948;28;19913;-75
2022/02/15 13:07:13;;;;;;;;;;;8.90;99.90;;;;;;5004846;28;19910;-75
2022/02/15 13:09:40;;;;;;;;;;;8.90;99.90;;;;;;5001679;28;19925;-75
2022/02/15 13:12:08;;;;;;;;;;;9.00;99.90;;;;;;5005653;28;19909;-76
2022/02/15 13:14:34;;;;;;;;;;;9.00;99.90;;;;;;5000956;28;19960;-76
2022/02/15 13:17:02;;;;;;;;;;;9.00;99.90;;;;;;4999630;28;19917;-76
2022/02/15 13:19:34;;;;;;;;;;;9.10;99.90;;;;;;5002292;28;19916;-75
2022/02/15 13:22:07;;;;;;;;;;;9.10;99.90;;;;;;4989200;28;19945;-76
2022/02/15 13:24:33;;;;;;;;;;;9.10;99.90;;;;;;4997583;28;19921;-75
2022/02/15 13:26:59;;;;;;;;;;;9.00;99.90;;;;;;4986111;28;19910;-74
2022/02/15 13:29:28;;;;;;;;;;;9.00;99.90;;;;;;5000216;28;19917;-76
2022/02/15 13:31:54;;;;;;;;;;;9.00;99.90;;;;;;5003792;28;19932;-76
2022/02/15 13:34:26;;;;;;;;;;;9.00;99.90;;;;;;5001475;28;19914;-76
2022/02/15 13:36:59;;;;;;;;;;;9.00;99.90;;;;;;4984457;28;19961;-76
2022/02/15 13:39:25;;;;;;;;;;;9.10;99.90;;;;;;4964124;28;20298;-76
2022/02/15 13:41:51;;;;;;;;;;;9.10;99.90;;;;;;5002522;28;19910;-75
2022/02/15 13:44:17;;;;;;;;;;;9.10;99.90;;;;;;4980935;28;20453;-75
2022/02/15 13:46:44;;;;;;;;;;;9.10;99.90;;;;;;4997314;28;19983;-75
2022/02/15 13:49:10;;;;;;;;;;;9.00;99.90;;;;;;4998910;28;19924;-75
2022/02/15 13:51:35;;;;;;;;;;;9.00;99.90;;;;;;4997479;28;19917;-75
2022/02/15 13:54:02;;;;;;;;;;;8.90;99.90;;;;;;4980415;28;20402;-75
2022/02/15 13:56:27;;;;;;;;;;;8.80;99.90;;;;;;4998556;28;19914;-76
2022/02/15 13:58:53;;;;;;;;;;;8.80;99.90;;;;;;4997846;28;19919;-76
2022/02/15 14:01:20;;;;;;;;;;;8.80;99.90;;;;;;4997120;28;20359;-76
2022/02/15 14:03:50;;;;;;;;;;;8.80;99.90;;;;;;4966835;28;19913;-75
2022/02/15 14:06:19;;;;;;;;;;;8.90;99.90;;;;;;4997785;28;20441;-76
2022/02/15 14:08:45;;;;;;;;;;;8.90;99.90;;;;;;4997627;28;19925;-75
2022/02/15 14:11:11;;;;;;;;;;;9.00;99.90;;;;;;4997257;28;20005;-75
2022/02/15 14:13:36;;;;;;;;;;;9.00;99.90;;;;;;4979954;28;19951;-75
2022/02/15 14:16:02;;;;;;;;;;;9.00;99.90;;;;;;4998624;28;20302;-75
2022/02/15 14:18:27;;;;;;;;;;;9.00;99.90;;;;;;4998824;28;19956;-75
2022/02/15 14:20:53;;;;;;;;;;;9.10;99.90;;;;;;4998212;28;19957;-75
2022/02/15 14:23:18;;;;;;;;;;;9.10;99.90;;;;;;4996303;28;19914;-72
2022/02/15 14:25:44;;;;;;;;;;;9.00;99.90;;;;;;4998852;28;19988;-75
2022/02/15 14:28:10;;;;;;;;;;;9.00;99.90;;;;;;4999040;28;20012;-75
2022/02/15 14:30:35;;;;;;;;;;;9.00;99.90;;;;;;4995603;28;19919;-75